Time;durP1;ratioP1;P1;durP2;ratioP2;P2;SDS_P1;SDS_P2;PMS_P1;PMS_P2;Temp;Humidity;BMP_temperature;BMP_pressure;BME280_temperature;BME280_humidity;BME280_pressure;Samples;Min_cycle;Max_cycle;Signal;HPM_P1;HPM_P2
2022/02/24 00:15:13;;;;;;;5.97;4.80;;;7.60;99.90;;;;;;4996098;28;20332;-88
2022/02/24 00:37:55;;;;;;;7.50;5.27;;;7.90;99.90;;;;;;4095478;26;20292;-88
2022/02/24 00:40:37;;;;;;;5.77;4.93;;;8.10;99.30;;;;;;4950465;28;20238;-88
2022/02/24 00:46:58;;;;;;;5.77;4.97;;;8.50;97.00;;;;;;4890239;28;20646;-88
2022/02/24 00:50:09;;;;;;;7.87;5.30;;;8.60;96.30;;;;;;4942461;29;20199;-88
2022/02/24 00:52:45;;;;;;;6.53;4.70;;;8.60;95.90;;;;;;4952719;28;20210;-88
2022/02/24 01:05:28;;;;;;;4.87;4.47;;;8.60;95.40;;;;;;4945894;28;20244;-88
2022/02/24 01:08:22;;;;;;;5.77;4.53;;;8.70;95.80;;;;;;4974263;28;20203;-88
2022/02/24 01:24:43;;;;;;;5.97;4.53;;;8.90;94.90;;;;;;4975734;28;20277;-88
2022/02/24 01:27:46;;;;;;;4.30;3.90;;;8.80;93.50;;;;;;4962867;28;20294;-88
2022/02/24 01:30:59;;;;;;;5.30;4.17;;;8.80;92.90;;;;;;4958462;28;20214;-88
2022/02/24 01:37:25;;;;;;;;;;;;;;;;;;;;;
2022/02/24 01:40:23;;;;;;;5.30;4.03;;;8.10;95.60;;;;;;4903929;29;20288;-88
2022/02/24 01:46:31;;;;;;;6.23;3.70;;;8.00;97.70;;;;;;4846340;29;20208;-88
2022/02/24 02:06:25;;;;;;;4.80;3.80;;;8.30;95.70;;;;;;4900569;29;20746;-88
2022/02/24 02:13:03;;;;;;;;;;;;;;;;;;;;;
2022/02/24 02:19:03;;;;;;;4.27;3.40;;;8.60;95.80;;;;;;4891090;29;20213;-88
2022/02/24 02:22:08;;;;;;;4.77;3.80;;;8.60;94.80;;;;;;4882167;29;20229;-88
2022/02/24 02:29:15;;;;;;;;;;;;;;;;;;;;;
2022/02/24 02:36:02;;;;;;;4.10;3.77;;;8.30;96.60;;;;;;4981516;28;20250;-87
2022/02/24 02:39:14;;;;;;;;;;;;;;;;;;;;;
2022/02/24 02:42:32;;;;;;;;;;;;;;;;;;;;;
2022/02/24 02:45:22;;;;;;;5.93;3.70;;;8.20;97.20;;;;;;4956938;28;20309;-88
2022/02/24 02:48:34;;;;;;;4.97;3.67;;;8.30;97.20;;;;;;4952482;28;20230;-88
2022/02/24 02:51:28;;;;;;;4.60;3.97;;;8.40;97.10;;;;;;4962380;28;20210;-88
2022/02/24 03:01:02;;;;;;;;;;;;;;;;;;;;;
2022/02/24 03:07:06;;;;;;;3.53;3.23;;;8.40;96.00;;;;;;4920369;29;20705;-88
2022/02/24 03:09:54;;;;;;;3.77;3.43;;;8.50;95.40;;;;;;4911892;28;20215;-88
2022/02/24 03:12:59;;;;;;;5.13;4.20;;;8.60;95.50;;;;;;4955127;28;20238;-88
2022/02/24 03:16:04;;;;;;;4.47;3.70;;;8.60;95.70;;;;;;4954961;28;20218;-88
2022/02/24 03:18:58;;;;;;;;;;;;;;;;;;;;;
2022/02/24 03:25:27;;;;;;;;;;;;;;;;;;;;;
2022/02/24 03:28:32;;;;;;;3.90;3.60;;;8.60;94.20;;;;;;4964970;28;20290;-88
2022/02/24 03:31:51;;;;;;;;;;;;;;;;;;;;;
2022/02/24 03:35:07;;;;;;;3.73;3.43;;;8.50;94.70;;;;;;4974940;28;20299;-88
2022/02/24 03:38:30;;;;;;;;;;;;;;;;;;;;;
2022/02/24 03:41:45;;;;;;;3.53;3.00;;;8.50;93.20;;;;;;4943507;28;20298;-88
2022/02/24 03:44:29;;;;;;;3.60;3.07;;;8.50;93.30;;;;;;4958147;28;20222;-88
2022/02/24 03:47:44;;;;;;;5.73;3.53;;;8.70;92.70;;;;;;4951362;28;20207;-88
2022/02/24 03:50:23;;;;;;;4.80;3.57;;;8.70;92.10;;;;;;4952922;28;20206;-88
2022/02/24 03:53:20;;;;;;;6.60;3.30;;;8.60;93.40;;;;;;4959858;28;20206;-88
2022/02/24 03:56:02;;;;;;;;;;;;;;;;;;;;;
2022/02/24 03:59:15;;;;;;;;;;;;;;;;;;;;;
2022/02/24 04:02:34;;;;;;;3.80;3.43;;;8.50;94.00;;;;;;4980517;28;20719;-88
2022/02/24 04:09:53;;;;;;;4.53;3.33;;;8.50;94.60;;;;;;4895146;29;20204;-88
2022/02/24 04:12:51;;;;;;;3.90;3.03;;;8.50;93.90;;;;;;4854300;29;20218;-88
2022/02/24 04:16:00;;;;;;;8.33;4.10;;;8.40;95.50;;;;;;4849854;29;20258;-88
2022/02/24 04:26:27;;;;;;;;;;;;;;;;;;;;;
2022/02/24 04:29:55;;;;;;;4.27;3.87;;;8.10;96.70;;;;;;4776069;29;20293;-88
2022/02/24 04:33:28;;;;;;;3.70;3.30;;;8.20;95.70;;;;;;4773972;30;20297;-88
2022/02/24 04:36:35;;;;;;;5.10;3.40;;;8.00;96.00;;;;;;4794421;29;20290;-88
2022/02/24 04:39:36;;;;;;;6.17;3.77;;;7.90;97.90;;;;;;4908764;29;20217;-88
2022/02/24 04:56:25;;;;;;;4.00;3.60;;;8.00;97.50;;;;;;4899789;29;20216;-89
2022/02/24 05:01:51;;;;;;;5.23;3.67;;;8.00;97.70;;;;;;4967655;28;20268;-90
2022/02/24 05:04:31;;;;;;;4.50;3.97;;;7.90;97.60;;;;;;4944417;28;20233;-89
2022/02/24 05:07:15;;;;;;;5.10;3.90;;;7.90;98.60;;;;;;4953321;28;20213;-90
2022/02/24 05:23:11;;;;;;;4.07;3.67;;;7.60;98.10;;;;;;5023581;28;20230;-88
2022/02/24 05:25:37;;;;;;;3.10;2.90;;;7.60;98.40;;;;;;5022799;28;20577;-89
2022/02/24 05:28:07;;;;;;;3.50;3.20;;;7.60;97.80;;;;;;5013629;28;20288;-88
2022/02/24 05:30:34;;;;;;;3.37;3.07;;;7.70;98.10;;;;;;5024371;28;20181;-90
2022/02/24 05:32:59;;;;;;;5.73;3.40;;;7.80;97.70;;;;;;5029814;28;20205;-88
2022/02/24 05:35:25;;;;;;;4.57;2.90;;;7.80;96.00;;;;;;5028250;28;20744;-89
2022/02/24 05:37:51;;;;;;;4.50;3.30;;;7.90;96.40;;;;;;5024277;28;20182;-89
2022/02/24 05:40:17;;;;;;;4.33;3.20;;;7.80;96.10;;;;;;5006187;28;20198;-88
2022/02/24 05:42:44;;;;;;;4.03;3.27;;;7.80;96.10;;;;;;5027486;28;20197;-89
2022/02/24 05:45:09;;;;;;;3.87;2.87;;;7.80;95.90;;;;;;5034951;28;20206;-90
2022/02/24 05:47:35;;;;;;;4.27;3.50;;;7.70;97.00;;;;;;5015906;28;20257;-90
2022/02/24 05:50:02;;;;;;;4.43;3.00;;;7.60;97.20;;;;;;5036167;28;20189;-90
2022/02/24 05:52:28;;;;;;;3.57;3.23;;;7.60;97.40;;;;;;5028893;28;20193;-89
2022/02/24 05:54:54;;;;;;;5.40;3.50;;;7.60;96.70;;;;;;5024625;28;20237;-89
2022/02/24 05:57:20;;;;;;;4.50;3.67;;;7.50;97.00;;;;;;5005320;28;20197;-90
2022/02/24 05:59:45;;;;;;;4.07;3.67;;;7.50;97.40;;;;;;4999596;28;20208;-88
2022/02/24 06:02:11;;;;;;;6.33;4.50;;;7.40;97.40;;;;;;5005811;28;20189;-88
2022/02/24 06:04:37;;;;;;;5.93;4.57;;;7.40;97.90;;;;;;5016508;28;20299;-88
2022/02/24 06:07:03;;;;;;;4.10;3.70;;;7.40;98.10;;;;;;5028914;28;20580;-88
2022/02/24 06:09:28;;;;;;;5.90;3.97;;;7.30;98.20;;;;;;5012411;28;20197;-88
2022/02/24 06:11:54;;;;;;;3.87;3.53;;;7.30;98.20;;;;;;5006486;28;20201;-88
2022/02/24 06:14:20;;;;;;;5.80;4.03;;;7.20;98.50;;;;;;5025111;28;20221;-87
2022/02/24 06:16:45;;;;;;;5.77;3.67;;;7.10;98.80;;;;;;5013170;28;20216;-89
2022/02/24 06:19:11;;;;;;;5.80;3.70;;;7.10;99.90;;;;;;5027604;28;20197;-89
2022/02/24 06:21:37;;;;;;;5.13;3.73;;;7.10;99.80;;;;;;5035497;28;20252;-90
2022/02/24 06:24:03;;;;;;;6.17;3.73;;;7.10;99.50;;;;;;5037171;28;20213;-88
2022/02/24 06:26:29;;;;;;;4.23;3.77;;;7.10;99.30;;;;;;5002452;28;20194;-88
2022/02/24 06:28:55;;;;;;;6.70;4.00;;;7.10;99.30;;;;;;5027291;28;20188;-88
2022/02/24 06:31:20;;;;;;;4.50;3.03;;;7.00;99.90;;;;;;5016096;28;20201;-88
2022/02/24 06:33:46;;;;;;;5.30;3.53;;;7.00;99.90;;;;;;5030240;28;20356;-89
2022/02/24 06:36:12;;;;;;;4.73;3.93;;;7.00;99.90;;;;;;5024680;28;20205;-88
2022/02/24 06:38:38;;;;;;;6.90;3.97;;;6.90;99.40;;;;;;5036420;28;20202;-90
2022/02/24 06:41:03;;;;;;;3.97;3.10;;;6.80;99.90;;;;;;5036652;28;20193;-89
2022/02/24 06:43:29;;;;;;;4.83;3.40;;;6.80;99.90;;;;;;5009508;28;20220;-88
2022/02/24 06:45:55;;;;;;;5.23;3.23;;;6.80;99.90;;;;;;5022852;28;20190;-88
2022/02/24 06:48:21;;;;;;;3.70;3.23;;;6.70;99.90;;;;;;5023365;28;20727;-88
2022/02/24 06:50:49;;;;;;;5.97;3.37;;;6.70;99.90;;;;;;5021545;28;20276;-89
2022/02/24 06:53:15;;;;;;;4.00;3.17;;;6.70;99.90;;;;;;5015161;28;20560;-89
2022/02/24 06:55:41;;;;;;;4.67;3.43;;;6.70;99.90;;;;;;5013689;28;20280;-89
2022/02/24 06:58:06;;;;;;;3.83;3.20;;;6.70;99.90;;;;;;5034592;28;20192;-88
2022/02/24 07:00:32;;;;;;;4.63;3.50;;;6.90;99.90;;;;;;5013652;28;20204;-88
2022/02/24 07:02:58;;;;;;;4.60;3.70;;;6.90;99.80;;;;;;4999377;28;20181;-89
2022/02/24 07:05:24;;;;;;;6.30;3.73;;;7.00;99.90;;;;;;5007417;28;20308;-90
2022/02/24 07:07:50;;;;;;;6.67;3.77;;;6.80;99.90;;;;;;5025594;28;20202;-89
2022/02/24 07:10:16;;;;;;;6.67;4.90;;;6.90;99.90;;;;;;5008715;28;20231;-89
2022/02/24 07:12:43;;;;;;;7.23;5.30;;;6.80;99.90;;;;;;5026419;28;20284;-89
2022/02/24 07:15:10;;;;;;;6.77;4.97;;;6.80;99.90;;;;;;5038753;28;20864;-89
2022/02/24 07:17:44;;;;;;;5.70;5.10;;;6.70;99.90;;;;;;5033174;28;20263;-89
2022/02/24 07:20:12;;;;;;;6.57;5.10;;;6.60;99.90;;;;;;5030519;28;20193;-90
2022/02/24 07:22:39;;;;;;;9.13;5.07;;;6.50;99.90;;;;;;5039284;28;20216;-89
2022/02/24 07:25:06;;;;;;;8.27;6.10;;;6.50;99.90;;;;;;5043472;28;20542;-90
2022/02/24 07:27:33;;;;;;;7.33;5.77;;;6.40;99.90;;;;;;5015148;28;20220;-90
2022/02/24 07:29:59;;;;;;;7.73;5.37;;;6.50;99.90;;;;;;5007099;28;20722;-90
2022/02/24 07:32:25;;;;;;;6.73;5.83;;;6.40;99.90;;;;;;5007534;28;20185;-91
2022/02/24 07:34:51;;;;;;;8.37;6.30;;;6.40;99.90;;;;;;5023798;28;20205;-90
2022/02/24 07:37:16;;;;;;;8.07;5.40;;;6.50;99.90;;;;;;5006996;28;20193;-90
2022/02/24 07:39:45;;;;;;;6.53;4.97;;;6.50;99.90;;;;;;5040017;28;20211;-90
2022/02/24 07:42:11;;;;;;;5.30;4.60;;;6.60;99.90;;;;;;5028047;28;20181;-91
2022/02/24 07:44:37;;;;;;;6.70;4.63;;;6.60;99.90;;;;;;5042080;28;20802;-91
2022/02/24 07:47:03;;;;;;;8.27;5.07;;;6.50;99.90;;;;;;5027949;28;20185;-92
2022/02/24 07:49:29;;;;;;;5.80;3.50;;;6.60;99.90;;;;;;5019945;28;20186;-91
2022/02/24 07:51:55;;;;;;;6.07;3.77;;;6.60;99.90;;;;;;5016925;28;20239;-91
2022/02/24 07:54:22;;;;;;;4.30;3.60;;;6.60;99.90;;;;;;4990257;28;20209;-91
2022/02/24 07:56:50;;;;;;;5.80;3.90;;;6.70;99.90;;;;;;5006610;28;20190;-91
2022/02/24 07:59:18;;;;;;;7.57;3.93;;;6.70;99.90;;;;;;5025761;28;20190;-91
2022/02/24 08:01:44;;;;;;;5.43;4.30;;;6.90;99.90;;;;;;5024390;28;20193;-91
2022/02/24 08:04:10;;;;;;;6.27;4.17;;;7.00;99.90;;;;;;5005171;28;20221;-91
2022/02/24 08:06:36;;;;;;;6.70;4.77;;;6.90;99.90;;;;;;5023501;28;20210;-91
2022/02/24 08:09:05;;;;;;;5.70;4.90;;;6.90;99.90;;;;;;5017031;28;20188;-90
2022/02/24 08:11:32;;;;;;;6.60;4.77;;;7.10;99.90;;;;;;4995218;28;20201;-91
2022/02/24 08:13:58;;;;;;;4.83;4.27;;;7.20;99.90;;;;;;5009384;28;20215;-91
2022/02/24 08:16:24;;;;;;;6.10;4.70;;;7.20;99.90;;;;;;4996028;28;20288;-90
2022/02/24 08:18:49;;;;;;;4.87;4.30;;;7.30;99.90;;;;;;5009185;28;20213;-92
2022/02/24 08:21:15;;;;;;;5.50;5.00;;;7.40;99.70;;;;;;5027109;28;20193;-92
2022/02/24 08:23:42;;;;;;;5.30;4.80;;;7.30;99.90;;;;;;5008595;28;20205;-91
2022/02/24 08:26:08;;;;;;;5.40;4.70;;;7.20;99.90;;;;;;5018924;28;20185;-93
2022/02/24 08:28:34;;;;;;;6.47;4.63;;;7.20;99.90;;;;;;5016371;28;20545;-91
2022/02/24 08:31:00;;;;;;;5.87;4.90;;;7.20;99.90;;;;;;5009791;28;20200;-91
2022/02/24 08:33:25;;;;;;;7.30;5.00;;;7.20;99.90;;;;;;5025134;28;20189;-91
2022/02/24 08:35:51;;;;;;;6.30;5.10;;;7.30;99.90;;;;;;5008571;28;20189;-91
2022/02/24 08:38:18;;;;;;;6.00;5.10;;;7.40;99.90;;;;;;5005013;28;20217;-91
2022/02/24 08:40:44;;;;;;;6.97;5.20;;;7.60;99.90;;;;;;5020358;28;20186;-91
2022/02/24 08:43:10;;;;;;;10.03;6.63;;;7.70;99.70;;;;;;5020113;28;20266;-92
2022/02/24 08:45:36;;;;;;;4.73;4.33;;;7.80;99.20;;;;;;5019503;28;20241;-88
2022/02/24 08:48:03;;;;;;;5.90;5.30;;;7.90;97.90;;;;;;5017498;28;20225;-88
2022/02/24 08:50:29;;;;;;;5.53;4.93;;;7.80;97.60;;;;;;4987913;28;20190;-88
2022/02/24 08:52:56;;;;;;;6.37;5.77;;;7.80;99.60;;;;;;5019089;28;20340;-93
2022/02/24 08:55:22;;;;;;;7.63;5.40;;;8.00;98.70;;;;;;5004576;28;20206;-92
2022/02/24 08:57:48;;;;;;;7.23;5.17;;;8.10;98.00;;;;;;5010202;28;20196;-91
2022/02/24 09:00:15;;;;;;;8.07;4.77;;;8.30;95.50;;;;;;5006267;28;20194;-91
2022/02/24 09:02:42;;;;;;;5.83;5.07;;;8.60;94.60;;;;;;5004672;28;20209;-91
2022/02/24 09:05:08;;;;;;;5.30;4.80;;;8.40;96.60;;;;;;5005970;28;20248;-91
2022/02/24 09:07:35;;;;;;;7.90;5.07;;;8.40;97.20;;;;;;4991121;28;20610;-89
2022/02/24 09:10:01;;;;;;;6.03;4.57;;;8.50;96.90;;;;;;5006336;28;20174;-90
2022/02/24 09:12:27;;;;;;;5.53;4.20;;;8.70;95.60;;;;;;4991152;28;20188;-91
2022/02/24 09:14:53;;;;;;;5.07;4.27;;;8.70;94.00;;;;;;4999874;28;20221;-91
2022/02/24 09:17:19;;;;;;;4.13;3.70;;;8.90;93.30;;;;;;5015329;28;20200;-91
2022/02/24 09:19:45;;;;;;;5.20;4.00;;;9.10;92.70;;;;;;5024863;28;20178;-90
2022/02/24 09:22:13;;;;;;;6.13;4.43;;;9.30;90.90;;;;;;5006511;28;20197;-90
2022/02/24 09:24:40;;;;;;;4.90;4.20;;;9.10;92.30;;;;;;5007628;28;20221;-91
2022/02/24 09:27:06;;;;;;;4.37;3.87;;;9.10;92.40;;;;;;5013303;28;20203;-92
2022/02/24 09:29:34;;;;;;;8.77;4.57;;;9.20;92.70;;;;;;5035247;28;20185;-93
2022/02/24 09:32:00;;;;;;;5.03;3.60;;;9.40;94.10;;;;;;5020047;28;20193;-94
2022/02/24 09:34:26;;;;;;;7.40;3.93;;;9.80;90.90;;;;;;5008875;28;20216;-91
2022/02/24 09:36:57;;;;;;;5.27;3.53;;;10.10;87.70;;;;;;5021863;28;20181;-91
2022/02/24 09:39:23;;;;;;;4.50;3.60;;;10.20;87.00;;;;;;5007070;28;20572;-90
2022/02/24 09:41:50;;;;;;;4.27;3.50;;;10.10;88.70;;;;;;5021256;28;20227;-91
2022/02/24 09:44:15;;;;;;;5.07;3.57;;;10.20;86.30;;;;;;5005212;28;20248;-90
2022/02/24 09:46:41;;;;;;;4.53;3.10;;;10.50;86.60;;;;;;5005888;28;20277;-91
2022/02/24 09:49:09;;;;;;;3.23;2.70;;;10.80;84.80;;;;;;5023203;28;20194;-90
2022/02/24 09:51:35;;;;;;;3.90;3.10;;;10.80;84.30;;;;;;5022568;28;20637;-90
2022/02/24 09:54:01;;;;;;;3.53;2.60;;;11.00;81.40;;;;;;5021439;28;20287;-90
2022/02/24 09:56:30;;;;;;;3.83;2.47;;;11.20;77.90;;;;;;5023409;28;20588;-90
2022/02/24 09:59:00;;;;;;;2.83;2.37;;;11.20;79.40;;;;;;5021112;28;20193;-90
2022/02/24 10:01:39;;;;;;;2.70;2.37;;;11.40;75.70;;;;;;5022950;28;20174;-90
2022/02/24 10:04:06;;;;;;;3.73;2.23;;;11.30;75.40;;;;;;5021981;28;20222;-91
2022/02/24 10:06:34;;;;;;;4.10;2.50;;;11.30;74.70;;;;;;5021486;28;20188;-90
2022/02/24 10:09:00;;;;;;;2.90;2.60;;;11.20;74.10;;;;;;5021764;28;20182;-88
2022/02/24 10:11:34;;;;;;;3.50;2.63;;;11.20;76.60;;;;;;5011217;28;20220;-90
2022/02/24 10:14:31;;;;;;;5.70;2.50;;;11.20;76.90;;;;;;5021177;28;20205;-90
2022/02/24 10:17:00;;;;;;;4.47;2.70;;;11.00;77.50;;;;;;5005131;28;20201;-90
2022/02/24 10:19:34;;;;;;;4.13;2.50;;;11.10;76.90;;;;;;5023778;28;20181;-90
2022/02/24 10:22:09;;;;;;;4.53;2.67;;;11.30;74.10;;;;;;5023076;28;20209;-90
2022/02/24 10:24:35;;;;;;;4.40;2.43;;;11.30;73.40;;;;;;5022940;28;20205;-90
2022/02/24 10:27:22;;;;;;;4.97;2.50;;;11.20;73.40;;;;;;5008324;28;20181;-90
2022/02/24 10:30:01;;;;;;;3.90;2.53;;;11.10;72.40;;;;;;5028968;28;20583;-89
2022/02/24 10:32:36;;;;;;;3.53;2.90;;;11.10;71.70;;;;;;5009670;28;20184;-89
2022/02/24 10:35:25;;;;;;;9.47;3.10;;;11.10;70.00;;;;;;5025648;28;20245;-90
2022/02/24 10:37:57;;;;;;;4.17;2.83;;;11.00;72.10;;;;;;5009718;28;20197;-90
2022/02/24 10:40:36;;;;;;;4.53;3.10;;;11.20;71.00;;;;;;5025600;28;20196;-90
2022/02/24 10:43:11;;;;;;;3.10;2.80;;;11.10;72.00;;;;;;5028796;28;20554;-90
2022/02/24 10:45:37;;;;;;;8.37;3.07;;;11.10;71.30;;;;;;5026548;28;20264;-91
2022/02/24 10:48:05;;;;;;;5.93;3.00;;;11.00;73.50;;;;;;5014436;28;20186;-90
2022/02/24 10:51:05;;;;;;;4.93;3.00;;;11.10;72.10;;;;;;5008268;28;20209;-92
2022/02/24 10:53:36;;;;;;;3.90;3.27;;;11.20;71.90;;;;;;4992830;28;20193;-91
2022/02/24 10:56:03;;;;;;;3.57;3.27;;;11.20;73.70;;;;;;5024033;28;20162;-90
2022/02/24 10:58:34;;;;;;;3.93;3.17;;;11.30;70.30;;;;;;5007756;28;20193;-90
2022/02/24 11:01:09;;;;;;;4.17;3.20;;;11.30;71.30;;;;;;5006648;28;20221;-90
2022/02/24 11:03:36;;;;;;;3.37;3.00;;;11.20;70.30;;;;;;5023519;28;20189;-91
2022/02/24 11:06:04;;;;;;;5.13;3.20;;;11.10;69.90;;;;;;4988094;28;20201;-91
2022/02/24 11:08:34;;;;;;;4.47;3.33;;;11.30;70.10;;;;;;5016873;28;20214;-94
2022/02/24 11:11:00;;;;;;;6.20;3.27;;;11.40;68.80;;;;;;5034795;28;20213;-90
2022/02/24 11:13:30;;;;;;;3.70;3.13;;;11.50;69.00;;;;;;5035903;28;20276;-91
2022/02/24 11:15:58;;;;;;;5.13;3.50;;;11.80;66.30;;;;;;5021479;28;20182;-90
2022/02/24 11:18:25;;;;;;;4.07;3.30;;;11.80;69.10;;;;;;5009749;28;20182;-90
2022/02/24 11:20:52;;;;;;;3.50;3.20;;;11.90;67.50;;;;;;5023102;28;20196;-91
2022/02/24 11:23:18;;;;;;;4.33;2.67;;;11.70;67.50;;;;;;5012677;28;20233;-90
2022/02/24 11:26:07;;;;;;;4.50;2.77;;;11.70;67.80;;;;;;5016746;28;20723;-90
2022/02/24 11:28:43;;;;;;;4.93;2.97;;;11.70;64.30;;;;;;5019297;28;20847;-91
2022/02/24 11:31:24;;;;;;;3.43;3.13;;;11.80;66.50;;;;;;5023862;28;20183;-91
2022/02/24 11:33:54;;;;;;;5.63;3.03;;;11.60;66.70;;;;;;5020897;28;20210;-91
2022/02/24 11:36:21;;;;;;;5.50;2.80;;;11.90;65.20;;;;;;5022245;28;20217;-91
2022/02/24 11:39:09;;;;;;;3.67;2.93;;;12.10;65.70;;;;;;4991087;28;20200;-91
2022/02/24 11:41:56;;;;;;;7.10;2.83;;;12.30;65.40;;;;;;4995667;28;20712;-90
2022/02/24 11:44:32;;;;;;;4.13;3.10;;;12.50;63.90;;;;;;5007406;28;20222;-91
2022/02/24 11:46:59;;;;;;;3.27;2.70;;;12.50;63.50;;;;;;5022249;28;20196;-91
2022/02/24 11:49:53;;;;;;;4.30;3.03;;;12.60;62.30;;;;;;5016956;28;20199;-90
2022/02/24 11:52:27;;;;;;;5.23;2.70;;;12.70;63.50;;;;;;5016901;28;20223;-90
2022/02/24 11:54:54;;;;;;;5.00;3.63;;;12.90;64.00;;;;;;5006122;28;20276;-89
2022/02/24 11:57:30;;;;;;;2.93;2.63;;;13.10;60.70;;;;;;5014703;28;20807;-90
2022/02/24 12:00:17;;;;;;;3.97;3.00;;;13.00;63.30;;;;;;5012920;28;20194;-89
2022/02/24 12:02:50;;;;;;;4.30;2.80;;;13.10;62.30;;;;;;5008644;28;20220;-87
2022/02/24 12:05:36;;;;;;;6.60;3.10;;;13.00;61.70;;;;;;5013474;28;20217;-91
2022/02/24 12:08:06;;;;;;;3.43;3.13;;;12.80;61.10;;;;;;5021108;28;20213;-91
2022/02/24 12:10:58;;;;;;;4.07;2.53;;;12.90;61.80;;;;;;5018081;28;20186;-90
2022/02/24 12:13:26;;;;;;;4.47;2.87;;;12.70;61.30;;;;;;4996749;28;20202;-90
2022/02/24 12:16:14;;;;;;;5.00;2.87;;;12.60;62.70;;;;;;5018709;28;20272;-90
2022/02/24 12:18:40;;;;;;;5.43;2.50;;;12.50;61.50;;;;;;5018484;28;20257;-89
2022/02/24 12:21:29;;;;;;;6.10;3.00;;;12.60;61.20;;;;;;5021344;28;20237;-87
2022/02/24 12:23:56;;;;;;;3.10;2.50;;;12.90;60.80;;;;;;5019356;28;20300;-88
2022/02/24 12:26:43;;;;;;;3.67;2.47;;;13.00;59.10;;;;;;5010892;28;20198;-88
2022/02/24 12:29:32;;;;;;;5.43;2.70;;;13.00;59.80;;;;;;5001100;28;21676;-89
2022/02/24 12:32:02;;;;;;;5.80;2.80;;;12.90;60.70;;;;;;5013412;28;20185;-87
2022/02/24 12:34:29;;;;;;;4.40;2.50;;;12.90;59.90;;;;;;5019100;28;20237;-88
2022/02/24 12:37:05;;;;;;;4.90;2.83;;;13.00;60.60;;;;;;5012183;28;20206;-91
2022/02/24 12:39:39;;;;;;;3.60;2.33;;;12.80;60.40;;;;;;5000152;28;20217;-90
2022/02/24 12:42:12;;;;;;;11.33;2.93;;;12.70;61.10;;;;;;5016880;28;20247;-88
2022/02/24 12:44:40;;;;;;;3.03;2.50;;;12.70;60.10;;;;;;5014246;28;20217;-91
2022/02/24 12:47:06;;;;;;;3.40;2.43;;;12.60;61.30;;;;;;5016991;28;20588;-91
2022/02/24 12:49:47;;;;;;;6.03;2.83;;;12.50;60.10;;;;;;5010368;28;20538;-90
2022/02/24 12:52:18;;;;;;;6.60;2.50;;;12.60;60.70;;;;;;5010936;28;20220;-90
2022/02/24 12:54:44;;;;;;;8.17;2.43;;;12.40;61.30;;;;;;5001141;28;20296;-90
2022/02/24 12:57:10;;;;;;;5.33;2.70;;;12.40;62.70;;;;;;5011965;28;20196;-91
2022/02/24 12:59:36;;;;;;;3.50;2.40;;;12.20;67.10;;;;;;4989973;28;20202;-91
2022/02/24 13:02:02;;;;;;;4.77;2.57;;;12.00;66.90;;;;;;5033825;28;20177;-91
2022/02/24 13:04:29;;;;;;;2.60;2.40;;;11.90;66.00;;;;;;5021464;28;20249;-91
2022/02/24 13:06:55;;;;;;;4.47;2.50;;;12.00;65.50;;;;;;5026375;28;20201;-91
2022/02/24 13:12:10;;;;;;;5.00;3.00;;;12.00;65.10;;;;;;5020022;28;20268;-92
2022/02/24 13:14:37;;;;;;;7.40;2.97;;;12.10;63.80;;;;;;5029560;28;20193;-91
2022/02/24 13:17:08;;;;;;;4.70;2.63;;;12.10;63.30;;;;;;5036052;28;20177;-91
2022/02/24 13:19:35;;;;;;;3.37;2.60;;;12.00;65.40;;;;;;5033025;28;20186;-91
2022/02/24 13:22:02;;;;;;;4.83;2.70;;;12.10;63.80;;;;;;5027208;28;20191;-91
2022/02/24 13:24:36;;;;;;;5.10;2.33;;;12.20;64.50;;;;;;5031695;28;20689;-91
2022/02/24 13:27:03;;;;;;;6.10;2.90;;;12.20;63.30;;;;;;5016181;28;20274;-90
2022/02/24 13:29:29;;;;;;;4.37;3.10;;;12.30;62.60;;;;;;5015944;28;20185;-91
2022/02/24 13:32:18;;;;;;;4.87;3.10;;;12.40;62.50;;;;;;5012445;28;20754;-92
2022/02/24 13:34:47;;;;;;;5.43;2.47;;;12.40;62.20;;;;;;5011745;28;20226;-91
2022/02/24 13:37:16;;;;;;;5.10;2.70;;;12.40;63.10;;;;;;5016347;28;20715;-91
2022/02/24 13:39:47;;;;;;;4.23;2.80;;;12.50;64.80;;;;;;4999326;28;20264;-91
2022/02/24 13:42:18;;;;;;;3.60;2.90;;;12.70;63.40;;;;;;5019179;28;20727;-90
2022/02/24 13:44:44;;;;;;;5.90;3.20;;;12.70;61.70;;;;;;5017625;28;20218;-90
2022/02/24 13:47:11;;;;;;;5.13;2.70;;;12.90;61.30;;;;;;5018912;28;20208;-91
2022/02/24 13:49:41;;;;;;;5.83;2.90;;;12.70;63.90;;;;;;5019420;28;20199;-91
2022/02/24 13:52:28;;;;;;;4.87;2.90;;;12.70;62.50;;;;;;5019070;28;20198;-91
2022/02/24 13:55:09;;;;;;;6.40;3.13;;;12.60;64.00;;;;;;5007050;28;20212;-91
2022/02/24 13:57:52;;;;;;;4.40;2.97;;;12.50;64.80;;;;;;5014225;28;20207;-91
2022/02/24 14:00:26;;;;;;;7.10;2.97;;;12.50;64.30;;;;;;5009074;28;20212;-91
2022/02/24 14:02:54;;;;;;;3.67;2.73;;;12.50;66.00;;;;;;5017758;28;20186;-91
2022/02/24 14:05:19;;;;;;;3.37;2.93;;;12.30;66.20;;;;;;5019157;28;20217;-91
2022/02/24 14:07:55;;;;;;;3.90;2.50;;;12.30;65.30;;;;;;5024483;28;20245;-91
2022/02/24 14:10:21;;;;;;;6.27;2.70;;;12.30;64.70;;;;;;5021673;28;20216;-91
2022/02/24 14:12:47;;;;;;;3.17;2.50;;;12.30;65.70;;;;;;5016178;28;20189;-91
2022/02/24 14:15:14;;;;;;;3.30;2.30;;;12.40;64.60;;;;;;5017996;28;20221;-91
2022/02/24 14:17:41;;;;;;;3.67;2.20;;;12.30;65.20;;;;;;5018695;28;20251;-91
2022/02/24 14:20:23;;;;;;;3.60;2.17;;;12.20;65.30;;;;;;5014017;28;20198;-91
2022/02/24 14:22:50;;;;;;;2.67;2.23;;;12.20;65.80;;;;;;5013455;28;20202;-90
2022/02/24 14:25:16;;;;;;;4.03;2.40;;;12.20;66.60;;;;;;5013207;28;20245;-90
2022/02/24 14:27:42;;;;;;;3.73;2.37;;;12.10;66.90;;;;;;4993895;28;20194;-92
2022/02/24 14:30:09;;;;;;;4.70;2.30;;;12.30;65.60;;;;;;5008935;28;20197;-90
2022/02/24 14:32:39;;;;;;;3.77;2.47;;;12.20;67.30;;;;;;5015181;28;20199;-89
2022/02/24 14:35:06;;;;;;;5.50;2.63;;;12.20;68.20;;;;;;5015917;28;20304;-90
2022/02/24 14:37:32;;;;;;;3.30;2.60;;;12.30;65.80;;;;;;5007013;28;20194;-89
2022/02/24 14:39:58;;;;;;;3.40;2.03;;;12.20;65.70;;;;;;5022384;28;20188;-89
2022/02/24 14:42:28;;;;;;;4.13;2.20;;;12.10;64.80;;;;;;5005074;28;20193;-90
2022/02/24 14:44:58;;;;;;;5.53;2.30;;;12.10;64.80;;;;;;5019478;28;20217;-90
2022/02/24 14:47:25;;;;;;;2.70;2.00;;;12.00;66.10;;;;;;5006838;28;20196;-90
2022/02/24 14:49:50;;;;;;;3.80;1.97;;;12.00;68.30;;;;;;5009455;28;20733;-90
2022/02/24 14:52:17;;;;;;;2.97;2.27;;;11.80;69.50;;;;;;5004207;28;20221;-90
2022/02/24 14:54:42;;;;;;;2.40;2.20;;;11.70;69.80;;;;;;5021432;28;20227;-89
2022/02/24 14:57:09;;;;;;;4.13;2.27;;;11.60;70.00;;;;;;5024294;28;20202;-90
2022/02/24 14:59:36;;;;;;;2.00;1.80;;;11.50;72.20;;;;;;5000198;28;20193;-90
2022/02/24 15:02:06;;;;;;;3.10;1.80;;;11.50;70.70;;;;;;4989048;28;20197;-89
2022/02/24 15:04:32;;;;;;;3.73;2.77;;;11.50;71.20;;;;;;4993239;28;20222;-90
2022/02/24 15:06:57;;;;;;;2.40;2.00;;;11.50;72.40;;;;;;5002681;28;20273;-90
2022/02/24 15:09:23;;;;;;;2.43;2.10;;;11.50;70.50;;;;;;4999735;28;20251;-89
2022/02/24 15:11:49;;;;;;;2.27;2.10;;;11.50;68.70;;;;;;5024723;28;20200;-90
2022/02/24 15:14:15;;;;;;;4.23;2.20;;;11.40;70.70;;;;;;4991669;28;20811;-91
2022/02/24 15:16:42;;;;;;;4.30;2.57;;;11.40;70.30;;;;;;5026188;28;20189;-90
2022/02/24 15:19:08;;;;;;;3.03;2.10;;;11.60;68.00;;;;;;5022989;28;20197;-90
2022/02/24 15:21:34;;;;;;;1.97;1.60;;;11.60;67.30;;;;;;5023012;28;20205;-89
2022/02/24 15:24:00;;;;;;;2.70;2.00;;;11.70;65.00;;;;;;5024033;28;20233;-89
2022/02/24 15:26:26;;;;;;;1.70;1.60;;;11.90;64.00;;;;;;5011701;28;20182;-88
2022/02/24 15:28:51;;;;;;;3.50;2.13;;;12.00;62.30;;;;;;4998537;28;20205;-89
2022/02/24 15:31:17;;;;;;;2.77;1.90;;;12.20;62.50;;;;;;4994179;28;20254;-88
2022/02/24 15:33:43;;;;;;;5.07;2.30;;;12.20;62.60;;;;;;5023136;28;20250;-89
2022/02/24 15:36:09;;;;;;;2.53;1.70;;;12.30;62.50;;;;;;5021802;28;20350;-90
2022/02/24 15:38:35;;;;;;;2.87;2.10;;;12.70;60.50;;;;;;5023296;28;20205;-89
2022/02/24 15:41:01;;;;;;;6.70;2.10;;;13.10;58.80;;;;;;5015096;28;20190;-90
2022/02/24 15:43:27;;;;;;;2.57;1.73;;;13.00;58.50;;;;;;5019035;28;20220;-89
2022/02/24 15:45:52;;;;;;;2.97;1.97;;;12.80;58.90;;;;;;5015207;28;20525;-88
2022/02/24 15:48:19;;;;;;;2.03;1.77;;;12.50;60.40;;;;;;5012157;28;20241;-89
2022/02/24 15:50:45;;;;;;;1.97;1.87;;;12.30;60.40;;;;;;5017075;28;20189;-88
2022/02/24 15:53:12;;;;;;;2.50;1.93;;;12.30;60.80;;;;;;5025337;28;20706;-89
2022/02/24 15:55:38;;;;;;;4.17;2.20;;;12.20;62.10;;;;;;4990629;28;20221;-89
2022/02/24 15:58:04;;;;;;;2.13;1.90;;;12.20;61.80;;;;;;5014335;28;20201;-88
2022/02/24 16:00:30;;;;;;;2.33;1.87;;;12.10;61.90;;;;;;5014899;28;20192;-89
2022/02/24 16:02:57;;;;;;;3.70;1.90;;;12.00;62.60;;;;;;5012069;28;20201;-88
2022/02/24 16:05:23;;;;;;;2.67;1.77;;;12.00;62.40;;;;;;5003205;28;20336;-89
2022/02/24 16:07:49;;;;;;;3.03;1.80;;;11.90;63.20;;;;;;5014304;28;20182;-88
2022/02/24 16:10:15;;;;;;;2.67;2.30;;;11.90;63.40;;;;;;5010381;28;20193;-88
2022/02/24 16:12:41;;;;;;;3.27;2.20;;;12.00;63.40;;;;;;5007853;28;20715;-89
2022/02/24 16:15:08;;;;;;;2.90;2.10;;;12.20;62.50;;;;;;5013842;28;20235;-88
2022/02/24 16:17:34;;;;;;;2.10;2.00;;;12.30;61.50;;;;;;5013392;28;20261;-88
2022/02/24 16:20:01;;;;;;;2.20;2.00;;;12.30;62.00;;;;;;5013092;28;20193;-89